Погода Совкелина неделю

Витебская область, Белоруссия

24 - 30 мая
  • 24мая
    Сегодня
    +10°
    +25°
    Ясно и безоблачно
    ВремяПогодаТемператураВлажностьДавлениеВетер, м/сВероятность осадков
    00:00Практически безоблачно+16°C67 %760 мм4.0 м/с2 %
    03:00Ясно и безоблачно+13°C62 %760 мм3.5 м/с2 %
    06:00Ясно и безоблачно+12°C69 %761 мм3.8 м/с2 %
    09:00Ясно и безоблачно+18°C62 %762 мм4.4 м/с2 %
    12:00Ясно и безоблачно+22°C48 %762 мм4.6 м/с2 %
    15:00Ясно и безоблачно+24°C43 %761 мм4.3 м/с2 %
    18:00Ясно и безоблачно+24°C44 %760 мм4.2 м/с2 %
    21:00Ясно и безоблачно+19°C58 %761 мм2.9 м/с2 %
  • 25мая
    Суббота
    +10°
    +26°
    Практически безоблачно
    ВремяПогодаТемператураВлажностьДавлениеВетер, м/сВероятность осадков
    00:00Ясно и безоблачно+14°C62 %761 мм3.5 м/с2 %
    03:00Ясно и безоблачно+12°C68 %761 мм2.9 м/с2 %
    06:00Ясно и безоблачно+11°C73 %761 мм2.9 м/с2 %
    09:00Ясно и безоблачно+18°C62 %761 мм2.5 м/с2 %
    12:00Ясно и безоблачно+24°C47 %761 мм2.5 м/с2 %
    15:00Практически безоблачно+25°C41 %760 мм2.5 м/с2 %
    18:00Практически безоблачно+25°C42 %759 мм2.3 м/с3 %
    21:00Практически безоблачно+20°C67 %759 мм2.1 м/с1 %
  • 26мая
    Воскресенье
    +13°
    +26°
    Практически безоблачно
    ВремяПогодаТемператураВлажностьДавлениеВетер, м/сВероятность осадков
    00:00Ясно и безоблачно+15°C75 %759 мм2.2 м/с2 %
    03:00Ясно и безоблачно+12°C84 %759 мм2.3 м/с2 %
    06:00Ясно и безоблачно+13°C86 %759 мм1.7 м/с2 %
    09:00Ясно и безоблачно+20°C65 %760 мм0.4 м/с2 %
    12:00Ясно и безоблачно+24°C42 %760 мм0.4 м/с2 %
    15:00Практически безоблачно+25°C37 %759 мм0.6 м/с2 %
    18:00Облачно с прояснениями+25°C35 %758 мм0.3 м/с2 %
    21:00Ясно и безоблачно+20°C62 %758 мм2.1 м/с2 %
  • 27мая
    Понедельник
    +12°
    +26°
    Ясно и безоблачно
    ВремяПогодаТемператураВлажностьДавлениеВетер, м/сВероятность осадков
    00:00Практически безоблачно+15°C71 %758 мм2.3 м/с2 %
    03:00Ясно и безоблачно+13°C83 %759 мм2.7 м/с2 %
    06:00Ясно и безоблачно+14°C78 %759 мм0.4 м/с2 %
    09:00Ясно и безоблачно+20°C60 %759 мм0.1 м/с2 %
    12:00Практически безоблачно+24°C38 %759 мм1.4 м/с2 %
    15:00Ясно и безоблачно+25°C38 %759 мм1.5 м/с5 %
    18:00Практически безоблачно+25°C41 %758 мм1.3 м/с18 %
    21:00Ясно и безоблачно+22°C63 %758 мм1.7 м/с8 %
  • 28мая
    Вторник
    +13°
    +26°
    Облачно с прояснениями
    ВремяПогодаТемператураВлажностьДавлениеВетер, м/сВероятность осадков
    00:00Ясно и безоблачно+16°C82 %758 мм1.7 м/с2 %
    03:00Ясно и безоблачно+13°C93 %758 мм2.0 м/с2 %
    06:00Ясно и безоблачно+14°C90 %757 мм1.7 м/с2 %
    09:00Ясно и безоблачно+21°C66 %758 мм1.0 м/с2 %
    12:00Практически безоблачно+25°C49 %757 мм1.5 м/с9 %
    15:00Облачно с прояснениями+25°C47 %757 мм1.1 м/с18 %
    18:00Небольшая облачность+23°C56 %756 мм1.2 м/с19 %
    21:00Практически безоблачно+21°C71 %756 мм1.1 м/с4 %
Мы используем cookies
Соглашаюсь